createdAt,value
2022-08-14T00:00:06.856Z,19.59
2022-08-14T00:05:16.509Z,19.51
2022-08-14T00:10:50.377Z,19.53
2022-08-14T00:15:48.259Z,19.49
2022-08-14T00:20:51.879Z,19.35
2022-08-14T00:26:05.871Z,19.35
2022-08-14T00:31:09.850Z,19.44
2022-08-14T00:36:37.694Z,19.45
2022-08-14T00:41:39.189Z,19.37
2022-08-14T00:46:42.285Z,19.35
2022-08-14T00:51:45.546Z,19.34
2022-08-14T00:56:55.578Z,19.28
2022-08-14T01:02:01.543Z,19.20
2022-08-14T01:07:04.967Z,19.17
2022-08-14T01:12:13.362Z,19.16
2022-08-14T01:17:49.274Z,19.04
2022-08-14T01:22:55.002Z,19.02
2022-08-14T01:27:58.774Z,19.06
2022-08-14T01:33:02.897Z,19.04
2022-08-14T01:38:07.530Z,19.00
2022-08-14T01:43:15.715Z,18.95
2022-08-14T01:48:20.757Z,19.01
2022-08-14T01:53:25.608Z,18.91
2022-08-14T01:58:35.570Z,18.86
2022-08-14T02:03:58.820Z,18.77
2022-08-14T02:09:04.338Z,18.78
2022-08-14T02:14:31.141Z,18.70
2022-08-14T02:19:35.743Z,18.55
2022-08-14T02:24:45.238Z,18.45
2022-08-14T02:29:59.191Z,18.44
2022-08-14T02:35:06.855Z,18.38
2022-08-14T02:40:12.641Z,18.35
2022-08-14T02:45:15.506Z,18.36
2022-08-14T02:50:21.236Z,18.26
2022-08-14T02:55:33.009Z,18.24
2022-08-14T03:00:40.103Z,18.21
2022-08-14T03:05:43.311Z,18.24
2022-08-14T03:10:48.598Z,18.24
2022-08-14T03:15:55.833Z,18.21
2022-08-14T03:21:01.053Z,18.25
2022-08-14T03:26:07.124Z,18.24
2022-08-14T03:31:13.374Z,18.24
2022-08-14T03:37:51.892Z,18.24
2022-08-14T03:41:42.139Z,18.23
2022-08-14T03:46:54.585Z,18.30
2022-08-14T03:52:00.865Z,18.30
2022-08-14T03:57:06.031Z,18.11
2022-08-14T04:02:09.584Z,17.92
2022-08-14T04:07:32.907Z,17.87
2022-08-14T04:12:40.412Z,18.09
2022-08-14T04:17:43.895Z,18.19
2022-08-14T04:22:51.123Z,18.25
2022-08-14T04:28:02.211Z,18.21
2022-08-14T04:33:13.597Z,18.14
2022-08-14T04:38:40.695Z,18.10
2022-08-14T04:43:45.191Z,18.17
2022-08-14T04:48:51.401Z,18.26
2022-08-14T04:54:03.146Z,18.34
2022-08-14T04:59:10.261Z,18.40
2022-08-14T05:04:14.578Z,18.43
2022-08-14T05:09:23.602Z,18.47
2022-08-14T05:14:46.353Z,18.52
2022-08-14T05:21:04.310Z,18.58
2022-08-14T05:25:13.978Z,18.63
2022-08-14T05:30:20.015Z,18.76
2022-08-14T05:35:22.843Z,18.85
2022-08-14T05:40:26.918Z,18.97
2022-08-14T05:45:31.055Z,19.05
2022-08-14T05:50:35.018Z,19.14
2022-08-14T05:55:42.794Z,19.27
2022-08-14T06:00:49.920Z,19.41
2022-08-14T06:05:54.060Z,19.52
2022-08-14T06:11:02.999Z,19.67
2022-08-14T06:16:07.988Z,19.82
2022-08-14T06:21:13.573Z,20.00
2022-08-14T06:26:16.477Z,20.18
2022-08-14T06:31:25.037Z,20.37
2022-08-14T06:36:27.735Z,20.51
2022-08-14T06:41:35.975Z,20.70
2022-08-14T06:46:54.896Z,20.89
2022-08-14T06:51:57.679Z,21.10
2022-08-14T06:57:00.408Z,21.25
2022-08-14T07:02:22.082Z,21.43
2022-08-14T07:07:25.497Z,21.62
2022-08-14T07:12:52.231Z,21.75
2022-08-14T07:17:55.652Z,21.87
2022-08-14T07:23:07.718Z,22.02
2022-08-14T07:28:20.830Z,22.19
2022-08-14T07:33:29.151Z,22.30
2022-08-14T07:38:37.952Z,22.40
2022-08-14T07:48:48.371Z,22.76
2022-08-14T07:53:56.782Z,22.92
2022-08-14T07:59:00.152Z,23.08
2022-08-14T08:04:09.162Z,23.23
2022-08-14T08:09:20.534Z,23.37
2022-08-14T08:14:26.075Z,23.56
2022-08-14T08:19:36.888Z,23.78
2022-08-14T08:24:43.249Z,23.86
2022-08-14T08:29:50.839Z,23.93
2022-08-14T08:34:55.283Z,24.00
2022-08-14T08:40:01.515Z,24.21
2022-08-14T08:45:05.391Z,24.46
2022-08-14T08:50:31.453Z,24.54
2022-08-14T08:55:35.532Z,24.53
2022-08-14T09:00:40.940Z,24.85
2022-08-14T09:05:57.788Z,25.06
2022-08-14T09:11:01.990Z,25.06
2022-08-14T09:16:18.515Z,25.12
2022-08-14T09:21:25.081Z,25.26
2022-08-14T09:26:34.893Z,25.60
2022-08-14T09:31:42.846Z,25.78
2022-08-14T09:37:24.658Z,25.90
2022-08-14T09:42:50.058Z,26.10
2022-08-14T09:47:56.084Z,26.22
2022-08-14T09:53:04.021Z,26.44
2022-08-14T09:58:19.476Z,26.52
2022-08-14T10:03:28.891Z,26.68
2022-08-14T10:08:42.053Z,26.82
2022-08-14T10:13:52.653Z,27.03
2022-08-14T10:19:07.242Z,27.24
2022-08-14T10:24:17.629Z,27.31
2022-08-14T10:29:32.409Z,27.46
2022-08-14T10:34:38.697Z,27.57
2022-08-14T10:40:01.714Z,27.73
2022-08-14T10:45:21.208Z,27.83
2022-08-14T10:50:35.791Z,28.00
2022-08-14T10:55:45.432Z,28.16
2022-08-14T11:00:56.870Z,28.47
2022-08-14T11:06:01.154Z,28.44
2022-08-14T11:11:07.090Z,28.73
2022-08-14T11:16:11.900Z,28.47
2022-08-14T11:21:19.045Z,28.87
2022-08-14T11:26:30.173Z,29.28
2022-08-14T11:31:38.714Z,29.41
2022-08-14T11:37:02.313Z,29.57
2022-08-14T11:42:57.422Z,29.09
2022-08-14T11:47:35.129Z,29.50
2022-08-14T11:52:50.667Z,29.78
2022-08-14T11:58:03.786Z,29.07
2022-08-14T12:03:09.481Z,29.68
2022-08-14T12:08:14.707Z,29.83
2022-08-14T12:13:32.250Z,29.65
2022-08-14T12:18:39.869Z,29.76
2022-08-14T12:23:42.702Z,30.78
2022-08-14T12:28:59.654Z,30.64
2022-08-14T12:34:10.160Z,30.21
2022-08-14T12:39:19.698Z,31.50
2022-08-14T12:44:32.296Z,32.41
2022-08-14T12:49:35.629Z,33.45
2022-08-14T12:54:43.581Z,34.20
2022-08-14T13:00:22.728Z,34.72
2022-08-14T13:05:29.053Z,34.64
2022-08-14T13:10:52.062Z,34.68
2022-08-14T13:15:57.596Z,34.99
2022-08-14T13:21:01.923Z,34.46
2022-08-14T13:26:05.479Z,33.62
2022-08-14T13:31:11.784Z,33.42
2022-08-14T13:36:24.550Z,33.05
2022-08-14T13:41:38.500Z,32.72
2022-08-14T13:46:44.405Z,32.60
2022-08-14T13:51:50.496Z,33.27
2022-08-14T13:56:55.898Z,32.65
2022-08-14T14:02:06.003Z,31.65
2022-08-14T14:07:13.214Z,31.13
2022-08-14T14:12:37.664Z,30.77
2022-08-14T14:17:44.040Z,30.45
2022-08-14T14:23:02.660Z,30.29
2022-08-14T14:28:06.110Z,30.47
2022-08-14T14:33:42.369Z,32.16
2022-08-14T14:38:42.136Z,34.71
2022-08-14T14:43:51.651Z,35.95
2022-08-14T14:48:56.323Z,36.02
2022-08-14T14:53:59.271Z,37.55
2022-08-14T14:59:02.411Z,36.51
2022-08-14T15:04:19.986Z,36.68
2022-08-14T15:09:24.019Z,35.12
2022-08-14T15:14:55.460Z,32.63
2022-08-14T15:19:56.242Z,31.09
2022-08-14T15:24:59.929Z,30.41
2022-08-14T15:30:04.086Z,30.25
2022-08-14T15:35:09.119Z,30.10
2022-08-14T15:40:22.186Z,29.93
2022-08-14T15:45:25.522Z,29.95
2022-08-14T15:50:31.438Z,29.88
2022-08-14T15:55:34.203Z,29.89
2022-08-14T16:00:55.160Z,30.25
2022-08-14T16:05:59.299Z,30.61
2022-08-14T16:11:04.729Z,30.37
2022-08-14T16:16:34.473Z,29.94
2022-08-14T16:21:37.547Z,30.79
2022-08-14T16:26:43.166Z,31.39
2022-08-14T16:31:54.572Z,30.59
2022-08-14T16:36:58.871Z,30.15
2022-08-14T16:42:01.906Z,29.92
2022-08-14T16:47:26.026Z,29.96
2022-08-14T16:52:44.295Z,30.62
2022-08-14T16:57:50.070Z,30.69
2022-08-14T17:03:00.886Z,30.55
2022-08-14T17:08:41.519Z,30.26
2022-08-14T17:13:57.784Z,30.06
2022-08-14T17:19:01.739Z,29.74
2022-08-14T17:24:58.365Z,29.57
2022-08-14T17:29:44.645Z,29.40
2022-08-14T17:35:01.930Z,29.17
2022-08-14T17:40:15.382Z,29.00
2022-08-14T17:45:27.042Z,28.75
2022-08-14T17:51:00.593Z,28.49
2022-08-14T17:56:06.021Z,28.25
2022-08-14T18:01:08.954Z,28.05
2022-08-14T18:06:38.334Z,27.81
2022-08-14T18:11:45.766Z,27.57
2022-08-14T18:16:51.953Z,27.38
2022-08-14T18:21:57.195Z,27.21
2022-08-14T18:27:09.093Z,27.10
2022-08-14T18:32:39.562Z,26.94
2022-08-14T18:37:55.719Z,26.80
2022-08-14T18:43:03.526Z,26.67
2022-08-14T18:48:33.214Z,26.56
2022-08-14T18:53:55.727Z,26.44
2022-08-14T18:59:00.306Z,26.32
2022-08-14T19:04:03.966Z,26.25
2022-08-14T19:09:07.423Z,26.20
2022-08-14T19:14:14.322Z,26.16
2022-08-14T19:19:19.201Z,26.07
2022-08-14T19:24:27.754Z,25.99
2022-08-14T19:29:37.920Z,25.94
2022-08-14T19:34:52.281Z,25.74
2022-08-14T19:39:56.712Z,25.59
2022-08-14T19:45:01.046Z,25.51
2022-08-14T19:50:08.022Z,25.45
2022-08-14T19:55:34.578Z,25.36
2022-08-14T20:00:52.123Z,25.27
2022-08-14T20:06:03.157Z,25.16
2022-08-14T20:12:00.575Z,25.02
2022-08-14T20:16:51.060Z,24.90
2022-08-14T20:22:04.621Z,24.86
2022-08-14T20:27:33.487Z,24.75
2022-08-14T20:32:41.031Z,24.70
2022-08-14T20:37:48.164Z,24.65
2022-08-14T20:43:20.432Z,24.44
2022-08-14T20:48:51.386Z,24.37
2022-08-14T20:53:59.478Z,24.33
2022-08-14T20:59:15.613Z,24.26
2022-08-14T21:04:29.191Z,24.18
2022-08-14T21:10:04.631Z,24.16
2022-08-14T21:14:55.607Z,24.10
2022-08-14T21:20:26.247Z,24.01
2022-08-14T21:25:26.006Z,23.91
2022-08-14T21:30:51.211Z,23.84
2022-08-14T21:36:00.561Z,23.80
2022-08-14T21:41:42.935Z,23.69
2022-08-14T21:46:47.794Z,23.48
2022-08-14T21:51:58.824Z,23.52
2022-08-14T21:57:13.651Z,23.52
2022-08-14T22:02:32.497Z,23.52
2022-08-14T22:07:38.882Z,23.53
2022-08-14T22:12:57.385Z,23.53
2022-08-14T22:18:04.100Z,23.56
2022-08-14T22:23:12.561Z,23.54
2022-08-14T22:28:21.601Z,23.48
2022-08-14T22:33:31.133Z,23.42
2022-08-14T22:38:38.965Z,23.35
2022-08-14T22:43:55.651Z,23.30
2022-08-14T22:48:59.002Z,23.17
2022-08-14T22:54:03.104Z,23.09
2022-08-14T22:59:09.832Z,23.00
2022-08-14T23:04:34.969Z,22.90
2022-08-14T23:09:56.275Z,22.79
2022-08-14T23:15:00.969Z,22.70
2022-08-14T23:20:18.526Z,22.66
2022-08-14T23:25:58.517Z,22.59
2022-08-14T23:30:49.877Z,22.48
2022-08-14T23:35:58.641Z,22.41
2022-08-14T23:41:14.490Z,22.41
2022-08-14T23:46:20.903Z,22.41
2022-08-14T23:51:23.627Z,22.41
2022-08-14T23:56:32.189Z,22.36
